Aérodrome :
LOGIN :

S'inscrire | Disclaimer

   EN    FR    IT 

 










Légende :    VFR   VFR Marginal   IFR   IFR Intensif   IFR Très Intensif
Visi : 
Plafond : 
>= 8 km
>= 3000ft
5 à 8 km
1000 à 3000 ft
1500m à 5 km
500 à 1000 ft
800 à 1500m
200 à 500 ft
< 800m
< 200 ft
Symboles :   Orages  Brouillard  Fortes neiges  Fortes précipitations  Vent > 20 kt
SIGMETs :   Divers  Orages  Givrage  Turbulence  Onde Orograph.  Cendres Volcan.






- Altitude de l'aérodrome : 499 ft
- Code IATA : TLS


LFBO - Toulouse / Blagnac

DERNIER METAR :
  • 202200Z AUTO 17006KT 120V200 9999 -RA NSC 10/07 Q1004 NOSIG

METARs EXPIRÉS :
  • 202130Z AUTO 16005KT CAVOK 10/06 Q1004 NOSIG
  • 202100Z AUTO 13006KT 9999 -RA NSC 10/06 Q1003 NOSIG
  • 202030Z AUTO 15008KT CAVOK 10/06 Q1004 NOSIG
  • 202000Z AUTO 14010KT CAVOK 10/06 Q1003 NOSIG

TAF TAF LFBO
Valide du 20 à 18h jusqu'au 22 à 00h UTC


201700Z 2018/2124 14008KT CAVOK
TEMPO 2022/2110 VRB03KT
PROB30
TEMPO 2104/2107 4000 BR NSC
TEMPO 2116/2121 -RA BKN080TCU
ATIS : +33 5 62 74 66 36



MET'MAP, la Météo Aéronautique d'un coup d'oeil ! - Copyright ORBIFLY Décembre 2007 - Disclaimer

ORBIFLY MET'MAP TEAM :

Programmation & Développement : Alexandra Zaïnal
Sur une idée originale de : Baudouin d'Aumeries
Assistance à la programmation : Marc-Olivier Méhu
Soutien technique & logistique : Manuel Goepfert

Contact : metmap@orbifly.com




SOURCES & CREDITS :

   NOAA